Flight Track Log - Related Links

Times and Time Zones

All times are in EDT time to prevent confusion due to time zone crossing. See the CLH2181 flight status page for this flight to view local times or setup timezone preferences in your user account.

Time Position Orientation Groundspeed Altitude Reporting Facility
EDT Latitude Longitude Course Direction KTS MPH feet Rate Location/Type
Sun 01:45:00 PM 51.2919 8.9534 147° Southeast  Level Estimated
Sun 01:46:00 PM 51.2274 9.0202 147° Southeast  Level Estimated
Sun 01:47:00 PM 51.1628 9.0869 147° Southeast  Level Estimated
Sun 01:48:00 PM 51.0982 9.1533 147° Southeast  Level Estimated
Sun 01:49:00 PM 51.0335 9.2196 147° Southeast  Level Estimated
Sun 01:50:00 PM 50.9688 9.2857 147° Southeast  Level Estimated
Sun 01:51:00 PM 50.9041 9.3516 147° Southeast  Level Estimated
Sun 01:52:00 PM 50.8393 9.4174 147° Southeast  Level Estimated
Sun 01:53:00 PM 50.7745 9.4829 147° Southeast  Level Estimated
Sun 01:54:00 PM 50.7097 9.5483 147° Southeast  Level Estimated
Sun 01:55:00 PM 50.6448 9.6135 147° Southeast  Level Estimated
Sun 01:56:00 PM 50.5799 9.6785 148° Southeast  Level Estimated
Sun 01:57:00 PM 50.5149 9.7433 148° Southeast  Level Estimated
Sun 01:58:00 PM 50.4499 9.8080 148° Southeast  Level Estimated
Sun 01:59:00 PM 50.3849 9.8724 148° Southeast  Level Estimated
Sun 02:00:00 PM 50.3199 9.9367 148° Southeast  Level Estimated
Sun 02:01:00 PM 50.2181 10.0368 148° Southeast  Level Estimated
Sun 02:02:00 PM 50.1163 10.1365 148° Southeast  Level Estimated
Sun 02:03:00 PM 50.0144 10.2358 148° Southeast  Level Estimated
Sun 02:04:00 PM 49.9124 10.3346 148° Southeast  Level Estimated
Sun 02:05:00 PM 49.8104 10.4331 148° Southeast  Level Estimated
Sun 02:06:00 PM 49.7082 10.5311 148° Southeast  Level Estimated
Sun 02:07:00 PM 49.6060 10.6287 148° Southeast  Level Estimated
Sun 02:08:00 PM 49.5037 10.7259 148° Southeast  Level Estimated
Sun 02:09:00 PM 49.4013 10.8227 148° Southeast  Level Estimated
Sun 02:10:00 PM 49.2988 10.9190 148° Southeast  Level Estimated
Sun 02:11:00 PM 49.1963 11.0150 149° Southeast  Level Estimated
Sun 02:12:00 PM 49.0936 11.1106 149° Southeast  Level Estimated
Sun 02:13:00 PM 48.9909 11.2058 149° Southeast  Level Estimated
Sun 02:14:00 PM 48.8881 11.3006 149° Southeast  Level Estimated
Sun 02:15:00 PM 48.7853 11.3950 149° Southeast  Level Estimated
Sun 02:16:00 PM 48.6823 11.4890 149° Southeast  Level Estimated
Sun 02:17:00 PM 48.5793 11.5827 149° Southeast  Level Estimated
Sun 02:18:00 PM 48.4762 11.6759 149° Southeast  Level Estimated
Sun 02:19:00 PM 48.3730 11.7688 149° Southeast  Level Estimated
Sun 02:20:00 PM 48.3538 11.7861 149° Southeast  Level Estimated
Sun 02:21:00 PM 48.3538 11.7861 318° Northwest  Level Estimated
Sun 02:22:00 PM 48.3538 11.7861 318° Northwest  Level Estimated
Sun 02:23:00 PM 48.3538 11.7861 318° Northwest  Level Estimated
Sun 02:24:00 PM 48.3538 11.7861 318° Northwest  Level Estimated
Sun 02:25:00 PM 48.3538 11.7861 318° Northwest  Level Estimated
Sun 02:26:00 PM 48.3538 11.7861 318° Northwest  Level Estimated
Sun 02:27:00 PM 48.3538 11.7861 318° Northwest  Level Estimated
Sun 02:28:00 PM 48.3538 11.7861 318° Northwest  Level Estimated

Login

Don't have an account? Register now (free) for customized features, flight alerts, and more!